Time;durP1;ratioP1;P1;durP2;ratioP2;P2;SDS_P1;SDS_P2;PMS_P1;PMS_P2;Temp;Humidity;BMP_temperature;BMP_pressure;BME280_temperature;BME280_humidity;BME280_pressure;Samples;Min_cycle;Max_cycle;Signal;HPM_P1;HPM_P2
2022/01/22 00:00:22;;;;;;;;;33.00;27.50;;;;;-143.72;100.00;60182.97;5039144;28;45566;-78
2022/01/22 00:02:48;;;;;;;;;36.75;30.50;;;;;-143.72;100.00;60182.97;5040902;28;45488;-79
2022/01/22 00:05:15;;;;;;;;;36.00;28.50;;;;;-143.72;100.00;60182.97;5042668;28;45331;-78
2022/01/22 00:07:41;;;;;;;;;33.00;27.00;;;;;-143.72;100.00;60182.97;5055733;28;45455;-78
2022/01/22 00:10:13;;;;;;;;;27.75;20.75;;;;;-143.72;100.00;60182.97;5056638;28;45427;-78
2022/01/22 00:15:09;;;;;;;;;33.00;25.50;;;;;-143.72;100.00;60182.97;5042886;28;45271;-78
2022/01/22 00:17:34;;;;;;;;;32.50;27.75;;;;;-143.72;100.00;60182.97;5041212;28;45436;-78
2022/01/22 00:20:00;;;;;;;;;22.00;17.75;;;;;-143.72;100.00;60182.97;5038843;28;45511;-79
2022/01/22 00:22:29;;;;;;;;;32.75;22.75;;;;;-143.72;100.00;60182.97;5056290;28;46043;-78
2022/01/22 00:24:58;;;;;;;;;36.50;28.25;;;;;-143.72;100.00;60182.97;5052575;28;46100;-78
2022/01/22 00:27:24;;;;;;;;;37.00;28.00;;;;;-143.72;100.00;60182.97;5043949;28;45371;-78
2022/01/22 00:29:50;;;;;;;;;34.50;29.75;;;;;-143.72;100.00;60182.97;5039433;28;45333;-78
2022/01/22 00:32:15;;;;;;;;;31.75;23.25;;;;;-143.72;100.00;60182.97;5042065;28;46138;-78
2022/01/22 00:34:41;;;;;;;;;27.25;24.25;;;;;-143.72;100.00;60182.97;5045131;28;45309;-78
2022/01/22 00:37:06;;;;;;;;;32.75;25.50;;;;;-143.72;100.00;60182.97;5026994;28;45601;-78
2022/01/22 00:39:33;;;;;;;;;40.00;28.50;;;;;-143.72;100.00;60182.97;5027409;28;45587;-78
2022/01/22 00:41:59;;;;;;;;;38.25;30.50;;;;;-143.72;100.00;60182.97;5041609;28;45525;-78
2022/01/22 00:44:25;;;;;;;;;29.25;22.75;;;;;-143.72;100.00;60182.97;5038514;28;45379;-78
2022/01/22 00:46:51;;;;;;;;;32.75;25.75;;;;;-143.72;100.00;60182.97;5054671;28;45380;-78
2022/01/22 00:49:16;;;;;;;;;37.50;28.50;;;;;-143.72;100.00;60182.97;5052989;28;45518;-78
2022/01/22 00:51:42;;;;;;;;;25.00;24.00;;;;;-143.72;100.00;60182.97;5054086;28;46722;-78
2022/01/22 00:54:07;;;;;;;;;54.50;42.00;;;;;-143.72;100.00;60182.97;5056465;28;47735;-78
2022/01/22 00:56:33;;;;;;;;;48.25;37.75;;;;;-143.72;100.00;60182.97;5053327;28;45427;-78
2022/01/22 00:58:58;;;;;;;;;58.25;39.00;;;;;-143.72;100.00;60182.97;5056913;28;45511;-78
2022/01/22 01:01:23;;;;;;;;;41.25;29.50;;;;;-143.72;100.00;60182.97;5048142;28;45384;-78
2022/01/22 01:03:49;;;;;;;;;52.25;33.50;;;;;-143.72;100.00;60182.97;5026816;28;45483;-78
2022/01/22 01:06:14;;;;;;;;;82.50;53.00;;;;;-143.72;100.00;60182.97;5043059;28;45400;-78
2022/01/22 01:08:39;;;;;;;;;49.50;35.50;;;;;-143.72;100.00;60182.97;5040151;28;45368;-78
2022/01/22 01:11:06;;;;;;;;;57.25;38.50;;;;;-143.72;100.00;60182.97;5042922;28;45375;-78
2022/01/22 01:13:37;;;;;;;;;51.50;40.25;;;;;-143.72;100.00;60182.97;5044675;28;45380;-78
2022/01/22 01:16:16;;;;;;;;;69.67;47.33;;;;;-143.72;100.00;60182.97;5044767;28;45365;-78
2022/01/22 01:32:30;;;;;;;;;67.75;45.00;;;;;-143.72;100.00;60182.97;5056264;28;47433;-78
2022/01/22 01:34:57;;;;;;;;;53.50;39.00;;;;;-143.72;100.00;60182.97;5053469;28;45626;-78
2022/01/22 01:37:22;;;;;;;;;71.50;50.25;;;;;-143.72;100.00;60182.97;5042086;28;45470;-78
2022/01/22 01:39:52;;;;;;;;;60.25;41.25;;;;;-143.72;100.00;60182.97;5055139;28;45437;-78
2022/01/22 01:42:25;;;;;;;;;58.50;43.50;;;;;-143.72;100.00;60182.97;5055587;28;46160;-78
2022/01/22 01:44:51;;;;;;;;;53.75;42.25;;;;;-143.72;100.00;60182.97;5039704;28;45669;-78
2022/01/22 01:47:18;;;;;;;;;35.50;28.50;;;;;-143.72;100.00;60182.97;5037541;28;45676;-78
2022/01/22 01:49:45;;;;;;;;;59.50;38.00;;;;;-143.72;100.00;60182.97;5054964;28;45431;-78
2022/01/22 01:52:16;;;;;;;;;55.50;40.00;;;;;-143.72;100.00;60182.97;5053841;28;46457;-78
2022/01/22 01:55:02;;;;;;;;;47.25;35.75;;;;;-143.72;100.00;60182.97;5055427;28;45408;-78
2022/01/22 01:57:40;;;;;;;;;40.75;30.50;;;;;-143.72;100.00;60182.97;5055587;28;45380;-78
2022/01/22 02:00:18;;;;;;;;;40.75;34.00;;;;;-143.72;100.00;60182.97;5055690;28;45601;-78
2022/01/22 02:02:46;;;;;;;;;48.50;35.75;;;;;-143.72;100.00;60182.97;5038663;28;47990;-78
2022/01/22 02:05:12;;;;;;;;;63.25;47.00;;;;;-143.72;100.00;60182.97;5041302;28;45337;-78
2022/01/22 02:07:40;;;;;;;;;59.75;46.75;;;;;-143.72;100.00;60182.97;5044042;28;45405;-78
2022/01/22 02:10:08;;;;;;;;;52.00;41.25;;;;;-143.72;100.00;60182.97;5027543;28;45582;-78
2022/01/22 02:13:00;;;;;;;;;71.75;46.25;;;;;-143.72;100.00;60182.97;5043793;28;45416;-78
2022/01/22 02:23:50;;;;;;;;;63.25;47.75;;;;;-143.72;100.00;60182.97;4992597;28;45545;-78
2022/01/22 02:26:17;;;;;;;;;66.50;46.00;;;;;-143.72;100.00;60182.97;4993544;28;45294;-78
2022/01/22 02:28:48;;;;;;;;;48.25;38.50;;;;;-143.72;100.00;60182.97;4993021;28;46153;-78
2022/01/22 02:31:33;;;;;;;;;55.00;38.25;;;;;-143.72;100.00;60182.97;4992596;28;45381;-78
2022/01/22 02:36:39;;;;;;;;;43.25;36.75;;;;;-143.72;100.00;60182.97;4992648;28;45318;-78
2022/01/22 02:39:11;;;;;;;;;43.75;32.00;;;;;-143.72;100.00;60182.97;4992927;28;45385;-78
2022/01/22 02:41:42;;;;;;;;;55.75;40.25;;;;;-143.72;100.00;60182.97;4976271;28;45665;-78
2022/01/22 02:44:10;;;;;;;;;44.00;35.25;;;;;-143.72;100.00;60182.97;4973436;28;47432;-78
2022/01/22 02:46:38;;;;;;;;;55.00;40.75;;;;;-143.72;100.00;60182.97;4972501;28;45594;-78
2022/01/22 02:49:04;;;;;;;;;50.75;34.75;;;;;-143.72;100.00;60182.97;4972557;28;45466;-78
2022/01/22 02:51:29;;;;;;;;;45.50;33.50;;;;;-143.72;100.00;60182.97;4972186;28;45421;-78
2022/01/22 02:53:56;;;;;;;;;42.25;33.00;;;;;-143.72;100.00;60182.97;4972606;28;46059;-78
2022/01/22 02:56:23;;;;;;;;;45.25;34.00;;;;;-143.72;100.00;60182.97;4973458;28;45453;-78
2022/01/22 02:58:51;;;;;;;;;55.25;40.75;;;;;-143.72;100.00;60182.97;5026548;28;45522;-78
2022/01/22 03:01:17;;;;;;;;;49.75;38.00;;;;;-143.72;100.00;60182.97;5033887;28;45508;-78
2022/01/22 03:03:44;;;;;;;;;58.75;44.00;;;;;-143.72;100.00;60182.97;5033814;28;45477;-78
2022/01/22 03:06:10;;;;;;;;;63.25;47.00;;;;;-143.72;100.00;60182.97;5033987;28;45515;-78
2022/01/22 03:08:38;;;;;;;;;60.00;49.00;;;;;-143.72;100.00;60182.97;5034385;28;45357;-78
2022/01/22 03:11:07;;;;;;;;;59.00;42.25;;;;;-143.72;100.00;60182.97;5032576;28;45431;-78
2022/01/22 03:19:13;;;;;;;;;57.25;42.25;;;;;-143.72;100.00;60182.97;5034003;28;45554;-78
2022/01/22 03:21:42;;;;;;;;;54.25;38.75;;;;;-143.72;100.00;60182.97;5027710;28;45483;-78
2022/01/22 03:29:38;;;;;;;;;52.50;40.75;;;;;-143.72;100.00;60182.97;5032044;28;45332;-78
2022/01/22 03:32:05;;;;;;;;;52.25;38.00;;;;;-143.72;100.00;60182.97;5016789;28;45509;-78
2022/01/22 03:34:36;;;;;;;;;56.50;35.25;;;;;-143.72;100.00;60182.97;5033752;28;45941;-78
2022/01/22 03:37:03;;;;;;;;;54.25;38.75;;;;;-143.72;100.00;60182.97;5033828;28;45493;-78
2022/01/22 03:39:28;;;;;;;;;54.00;37.50;;;;;-143.72;100.00;60182.97;5011589;28;45322;-78
2022/01/22 03:41:54;;;;;;;;;47.25;38.00;;;;;-143.72;100.00;60182.97;5030437;28;45395;-78
2022/01/22 03:44:19;;;;;;;;;54.00;38.00;;;;;-143.72;100.00;60182.97;5038084;28;46145;-78
2022/01/22 03:46:45;;;;;;;;;44.75;33.00;;;;;-143.72;100.00;60182.97;5040768;28;45547;-78
2022/01/22 03:49:11;;;;;;;;;43.75;32.75;;;;;-143.72;100.00;60182.97;5038596;28;45435;-78
2022/01/22 03:51:37;;;;;;;;;45.00;33.00;;;;;-143.72;100.00;60182.97;5028730;28;45707;-78
2022/01/22 03:54:02;;;;;;;;;46.00;35.75;;;;;-143.72;100.00;60182.97;5033612;28;45556;-78
2022/01/22 03:56:28;;;;;;;;;49.75;37.25;;;;;-143.72;100.00;60182.97;5036851;28;45377;-78
2022/01/22 03:58:53;;;;;;;;;42.75;35.00;;;;;-143.72;100.00;60182.97;5035575;28;45830;-78
2022/01/22 04:04:14;;;;;;;;;43.75;35.50;;;;;-143.72;100.00;60182.97;5014079;28;46463;-78
2022/01/22 04:09:14;;;;;;;;;48.75;34.75;;;;;-143.72;100.00;60182.97;5014883;28;45307;-78
2022/01/22 04:11:42;;;;;;;;;43.75;35.25;;;;;-143.72;100.00;60182.97;5014151;28;45470;-78
2022/01/22 04:14:15;;;;;;;;;49.00;39.25;;;;;-143.72;100.00;60182.97;5002587;28;47212;-78
2022/01/22 04:16:54;;;;;;;;;45.00;36.75;;;;;-143.72;100.00;60182.97;5022208;28;45526;-78
2022/01/22 04:24:51;;;;;;;;;53.25;38.75;;;;;-143.72;100.00;60182.97;5014222;28;45381;-78
2022/01/22 04:27:22;;;;;;;;;42.75;36.50;;;;;-143.72;100.00;60182.97;4997733;28;46141;-78
2022/01/22 04:29:47;;;;;;;;;45.25;35.00;;;;;-143.72;100.00;60182.97;5014710;28;45350;-78
2022/01/22 04:32:13;;;;;;;;;46.75;33.75;;;;;-143.72;100.00;60182.97;5015233;28;45487;-78
2022/01/22 04:34:38;;;;;;;;;40.25;34.75;;;;;-143.72;100.00;60182.97;5010793;28;47239;-78
2022/01/22 04:37:04;;;;;;;;;49.50;38.00;;;;;-143.72;100.00;60182.97;5010674;28;45500;-78
2022/01/22 04:39:29;;;;;;;;;51.00;37.50;;;;;-143.72;100.00;60182.97;5003970;28;45342;-78
2022/01/22 04:41:56;;;;;;;;;34.00;31.25;;;;;-143.72;100.00;60182.97;5017995;28;45312;-78
2022/01/22 04:44:30;;;;;;;;;53.50;40.75;;;;;-143.72;100.00;60182.97;5018968;28;48185;-78
2022/01/22 04:47:16;;;;;;;;;43.75;34.00;;;;;-143.72;100.00;60182.97;5034278;28;45504;-78
2022/01/22 04:55:02;;;;;;;;;52.00;39.50;;;;;-143.72;100.00;60182.97;5031331;28;46145;-78
2022/01/22 04:57:29;;;;;;;;;45.75;35.25;;;;;-143.72;100.00;60182.97;5025033;28;45689;-78
2022/01/22 04:59:54;;;;;;;;;40.00;36.50;;;;;-143.72;100.00;60182.97;5036456;28;45545;-78
2022/01/22 05:02:20;;;;;;;;;50.00;36.25;;;;;-143.72;100.00;60182.97;5020869;28;45393;-78
2022/01/22 05:04:46;;;;;;;;;36.00;30.50;;;;;-143.72;100.00;60182.97;5034360;28;48134;-78
2022/01/22 05:07:11;;;;;;;;;44.00;34.50;;;;;-143.72;100.00;60182.97;5029601;28;45417;-78
2022/01/22 05:09:36;;;;;;;;;53.25;34.50;;;;;-143.72;100.00;60182.97;5025142;28;45966;-78
2022/01/22 05:12:04;;;;;;;;;46.50;34.50;;;;;-143.72;100.00;60182.97;5018025;28;45561;-78
2022/01/22 05:14:29;;;;;;;;;51.50;40.25;;;;;-143.72;100.00;60182.97;5035609;28;45538;-78
2022/01/22 05:16:56;;;;;;;;;44.75;38.25;;;;;-143.72;100.00;60182.97;5032649;28;45405;-78
2022/01/22 05:19:39;;;;;;;;;44.50;37.50;;;;;-143.72;100.00;60182.97;5028092;28;45500;-78
2022/01/22 05:22:17;;;;;;;;;48.25;35.25;;;;;-143.72;100.00;60182.97;5029331;28;45332;-78
2022/01/22 05:24:48;;;;;;;;;50.25;37.50;;;;;-143.72;100.00;60182.97;5032623;28;46019;-78
2022/01/22 05:27:30;;;;;;;;;44.25;35.25;;;;;-143.72;100.00;60182.97;5034134;28;45841;-78
2022/01/22 05:32:36;;;;;;;;;46.75;35.50;;;;;-143.72;100.00;60182.97;5032761;28;45338;-78
2022/01/22 05:37:45;;;;;;;;;52.00;38.00;;;;;-143.72;100.00;60182.97;5034779;28;45273;-78
2022/01/22 05:40:11;;;;;;;;;51.75;35.50;;;;;-143.72;100.00;60182.97;5037820;28;45395;-78
2022/01/22 05:42:36;;;;;;;;;47.00;36.25;;;;;-143.72;100.00;60182.97;5052494;28;47704;-78
2022/01/22 05:45:06;;;;;;;;;47.75;35.00;;;;;-143.72;100.00;60182.97;5055733;28;46268;-78
2022/01/22 05:47:32;;;;;;;;;38.00;35.75;;;;;-143.72;100.00;60182.97;5053703;28;45757;-78
2022/01/22 05:49:58;;;;;;;;;49.00;40.00;;;;;-143.72;100.00;60182.97;5052222;28;45365;-79
2022/01/22 05:52:32;;;;;;;;;51.00;34.50;;;;;-143.72;100.00;60182.97;5030176;28;45598;-78
2022/01/22 05:55:39;;;;;;;;;48.75;39.75;;;;;-143.72;100.00;60182.97;5051742;28;46634;-78
2022/01/22 06:00:39;;;;;;;;;51.50;35.75;;;;;-143.72;100.00;60182.97;5056460;28;45427;-78
2022/01/22 06:03:04;;;;;;;;;49.00;38.50;;;;;-143.72;100.00;60182.97;5055215;28;45581;-78
2022/01/22 06:05:29;;;;;;;;;44.50;35.75;;;;;-143.72;100.00;60182.97;5038368;28;47857;-78
2022/01/22 06:07:55;;;;;;;;;44.00;35.25;;;;;-143.72;100.00;60182.97;5043036;28;45479;-78
2022/01/22 06:10:27;;;;;;;;;42.00;33.50;;;;;-143.72;100.00;60182.97;5024997;28;45492;-78
2022/01/22 06:15:18;;;;;;;;;49.00;39.00;;;;;-143.72;100.00;60182.97;5055124;28;45498;-78
2022/01/22 06:17:43;;;;;;;;;51.75;36.75;;;;;-143.72;100.00;60182.97;5053723;28;46203;-78
2022/01/22 06:20:13;;;;;;;;;38.00;33.50;;;;;-143.72;100.00;60182.97;5037869;28;45448;-78
2022/01/22 06:22:42;;;;;;;;;46.75;35.50;;;;;-143.72;100.00;60182.97;5026642;28;45295;-78
2022/01/22 06:25:08;;;;;;;;;44.00;38.00;;;;;-143.72;100.00;60182.97;5042197;28;45592;-78
2022/01/22 06:27:33;;;;;;;;;60.25;42.00;;;;;-143.72;100.00;60182.97;5026588;28;45980;-78
2022/01/22 06:29:59;;;;;;;;;47.50;35.75;;;;;-143.72;100.00;60182.97;5054866;28;45346;-78
2022/01/22 06:32:25;;;;;;;;;53.00;38.00;;;;;-143.72;100.00;60182.97;5055166;28;45483;-78
2022/01/22 06:34:50;;;;;;;;;55.50;38.75;;;;;-143.72;100.00;60182.97;5054700;28;46156;-78
2022/01/22 06:37:16;;;;;;;;;35.75;29.25;;;;;-143.72;100.00;60182.97;5047615;28;45329;-78
2022/01/22 06:42:26;;;;;;;;;43.00;36.00;;;;;-143.72;100.00;60182.97;5034436;28;45598;-79
2022/01/22 06:44:52;;;;;;;;;51.00;35.25;;;;;-143.72;100.00;60182.97;5018958;28;45553;-78
2022/01/22 06:47:17;;;;;;;;;37.75;30.00;;;;;-143.72;100.00;60182.97;5019740;28;45535;-79
2022/01/22 06:49:42;;;;;;;;;54.75;38.25;;;;;-143.72;100.00;60182.97;5033653;28;45477;-78
2022/01/22 06:52:08;;;;;;;;;45.50;34.75;;;;;-143.72;100.00;60182.97;5016655;28;45480;-78
2022/01/22 06:54:33;;;;;;;;;42.75;32.75;;;;;-143.72;100.00;60182.97;5032743;28;46034;-78
2022/01/22 06:56:58;;;;;;;;;40.75;36.00;;;;;-143.72;100.00;60182.97;5028007;28;45768;-78
2022/01/22 06:59:24;;;;;;;;;54.75;40.25;;;;;-143.72;100.00;60182.97;5001219;28;45521;-78
2022/01/22 07:01:54;;;;;;;;;45.50;34.75;;;;;-143.72;100.00;60182.97;5016524;28;45564;-78
2022/01/22 07:04:20;;;;;;;;;43.75;36.00;;;;;-143.72;100.00;60182.97;5026610;28;46103;-78
2022/01/22 07:06:45;;;;;;;;;54.75;39.75;;;;;-143.72;100.00;60182.97;5022463;28;45334;-79
2022/01/22 07:09:11;;;;;;;;;49.75;39.50;;;;;-143.72;100.00;60182.97;5020857;28;45642;-79
2022/01/22 07:11:36;;;;;;;;;49.50;34.75;;;;;-143.72;100.00;60182.97;5018600;28;45430;-79
2022/01/22 07:14:03;;;;;;;;;52.25;41.00;;;;;-143.72;100.00;60182.97;5021321;28;46175;-79
2022/01/22 07:16:28;;;;;;;;;42.50;34.75;;;;;-143.72;100.00;60182.97;5013569;28;45408;-79
2022/01/22 07:18:59;;;;;;;;;41.25;28.75;;;;;-143.72;100.00;60182.97;5034110;28;45816;-79
2022/01/22 07:21:24;;;;;;;;;36.75;26.75;;;;;-143.72;100.00;60182.97;5030282;28;45319;-78
2022/01/22 07:26:16;;;;;;;;;51.75;38.25;;;;;-143.72;100.00;60182.97;5030234;28;45446;-79
2022/01/22 07:28:42;;;;;;;;;36.00;27.25;;;;;-143.72;100.00;60182.97;5031144;28;45509;-79
2022/01/22 07:31:08;;;;;;;;;53.75;36.25;;;;;-143.72;100.00;60182.97;5031110;28;45463;-79
2022/01/22 07:33:36;;;;;;;;;37.00;33.50;;;;;-143.72;100.00;60182.97;5016787;28;47309;-78
2022/01/22 07:36:03;;;;;;;;;55.00;40.50;;;;;-143.72;100.00;60182.97;5015895;28;46053;-78
2022/01/22 07:38:28;;;;;;;;;55.75;42.00;;;;;-143.72;100.00;60182.97;5017186;28;45396;-79
2022/01/22 07:40:54;;;;;;;;;40.50;29.25;;;;;-143.72;100.00;60182.97;5045054;28;45549;-79
2022/01/22 07:43:19;;;;;;;;;56.00;40.00;;;;;-143.72;100.00;60182.97;5031939;28;48294;-79
2022/01/22 07:45:45;;;;;;;;;46.75;37.00;;;;;-143.72;100.00;60182.97;5040459;28;45540;-79
2022/01/22 07:48:11;;;;;;;;;51.50;36.25;;;;;-143.72;100.00;60182.97;5039833;28;45389;-78
2022/01/22 07:50:36;;;;;;;;;56.25;41.75;;;;;-143.72;100.00;60182.97;5058468;28;45387;-78
2022/01/22 07:53:02;;;;;;;;;50.50;39.00;;;;;-143.72;100.00;60182.97;5053114;28;45455;-78
2022/01/22 07:55:29;;;;;;;;;53.00;39.25;;;;;-143.72;100.00;60182.97;5056871;28;45348;-79
2022/01/22 07:57:54;;;;;;;;;49.50;38.25;;;;;-143.72;100.00;60182.97;5042122;28;45401;-79
2022/01/22 08:00:20;;;;;;;;;54.25;40.50;;;;;-143.72;100.00;60182.97;5040455;28;45413;-80
2022/01/22 08:02:46;;;;;;;;;50.50;40.75;;;;;-143.72;100.00;60182.97;5057270;28;45486;-79
2022/01/22 08:05:12;;;;;;;;;48.00;41.25;;;;;-143.72;100.00;60182.97;5039454;28;45378;-78
2022/01/22 08:07:39;;;;;;;;;54.00;40.50;;;;;-143.72;100.00;60182.97;5057327;28;45627;-78
2022/01/22 08:10:08;;;;;;;;;50.50;40.50;;;;;-143.72;100.00;60182.97;5040930;28;45459;-78
2022/01/22 08:12:35;;;;;;;;;53.50;37.00;;;;;-143.72;100.00;60182.97;5056642;28;47169;-79
2022/01/22 08:15:01;;;;;;;;;46.50;36.75;;;;;-143.72;100.00;60182.97;5054309;28;45545;-78
2022/01/22 08:17:26;;;;;;;;;49.75;36.50;;;;;-143.72;100.00;60182.97;5055269;28;45554;-79
2022/01/22 08:19:53;;;;;;;;;50.50;39.00;;;;;-143.72;100.00;60182.97;5055895;28;45515;-78
2022/01/22 08:22:19;;;;;;;;;56.25;38.50;;;;;-143.72;100.00;60182.97;5048916;28;45464;-79
2022/01/22 08:24:44;;;;;;;;;47.00;36.50;;;;;-143.72;100.00;60182.97;5047265;28;45443;-79
2022/01/22 08:27:31;;;;;;;;;46.00;38.25;;;;;-143.72;100.00;60182.97;5055728;28;45549;-78
2022/01/22 08:29:57;;;;;;;;;53.50;41.25;;;;;-143.72;100.00;60182.97;5048799;28;45542;-77
2022/01/22 08:37:48;;;;;;;;;45.00;38.50;;;;;-143.72;100.00;60182.97;5056645;28;45403;-79
2022/01/22 08:40:13;;;;;;;;;50.50;40.00;;;;;-143.72;100.00;60182.97;5037589;28;45404;-77
2022/01/22 08:42:39;;;;;;;;;49.00;37.25;;;;;-143.72;100.00;60182.97;5035903;28;47037;-76
2022/01/22 08:45:06;;;;;;;;;53.00;39.25;;;;;-143.72;100.00;60182.97;5050797;28;45359;-77
2022/01/22 08:47:31;;;;;;;;;54.25;37.50;;;;;-143.72;100.00;60182.97;5055130;28;45478;-78
2022/01/22 08:49:57;;;;;;;;;50.00;39.75;;;;;-143.72;100.00;60182.97;5043405;28;45520;-78
2022/01/22 08:52:27;;;;;;;;;46.50;39.00;;;;;-143.72;100.00;60182.97;5052044;28;47807;-79
2022/01/22 08:54:52;;;;;;;;;50.00;35.75;;;;;-143.72;100.00;60182.97;5055873;28;45476;-79
2022/01/22 08:57:18;;;;;;;;;54.50;39.75;;;;;-143.72;100.00;60182.97;5056059;28;45478;-78
2022/01/22 08:59:44;;;;;;;;;46.50;37.25;;;;;-143.72;100.00;60182.97;5047428;28;45706;-78
2022/01/22 09:02:09;;;;;;;;;52.25;39.00;;;;;-143.72;100.00;60182.97;5055542;28;46370;-78
2022/01/22 09:04:35;;;;;;;;;60.50;40.00;;;;;-143.72;100.00;60182.97;5037347;28;45597;-78
2022/01/22 09:07:00;;;;;;;;;57.50;42.25;;;;;-143.72;100.00;60182.97;5051516;28;45451;-78
2022/01/22 09:09:26;;;;;;;;;56.00;42.00;;;;;-143.72;100.00;60182.97;5028486;28;45651;-78
2022/01/22 09:11:52;;;;;;;;;34.00;23.75;;;;;-143.72;100.00;60182.97;5037755;28;48033;-78
2022/01/22 09:14:18;;;;;;;;;54.50;39.25;;;;;-143.72;100.00;60182.97;5055859;28;45505;-78
2022/01/22 09:16:44;;;;;;;;;52.50;37.25;;;;;-143.72;100.00;60182.97;5054907;28;45294;-78
2022/01/22 09:19:11;;;;;;;;;53.50;38.25;;;;;-143.72;100.00;60182.97;5048151;28;45438;-78
2022/01/22 09:21:43;;;;;;;;;45.50;38.75;;;;;-143.72;100.00;60182.97;5052314;28;45772;-78
2022/01/22 09:24:09;;;;;;;;;55.75;40.25;;;;;-143.72;100.00;60182.97;5034367;28;45476;-78
2022/01/22 09:26:35;;;;;;;;;50.75;41.50;;;;;-143.72;100.00;60182.97;5041745;28;45490;-78
2022/01/22 09:29:01;;;;;;;;;53.25;41.75;;;;;-143.72;100.00;60182.97;5051823;28;45354;-78
2022/01/22 09:31:28;;;;;;;;;41.50;36.50;;;;;-143.72;100.00;60182.97;5052493;28;46501;-78
2022/01/22 09:33:58;;;;;;;;;42.50;36.50;;;;;-143.72;100.00;60182.97;5052257;28;45344;-78
2022/01/22 09:36:25;;;;;;;;;55.50;41.25;;;;;-143.72;100.00;60182.97;5052819;28;45546;-78
2022/01/22 09:38:52;;;;;;;;;47.25;36.25;;;;;-143.72;100.00;60182.97;5040747;28;45400;-78
2022/01/22 09:41:19;;;;;;;;;56.75;39.50;;;;;-143.72;100.00;60182.97;5055867;28;45198;-78
2022/01/22 09:43:45;;;;;;;;;41.50;36.75;;;;;-143.72;100.00;60182.97;5051878;28;45438;-78
2022/01/22 09:46:10;;;;;;;;;49.00;38.75;;;;;-143.72;100.00;60182.97;5052336;28;45595;-78
2022/01/22 09:48:41;;;;;;;;;44.50;35.25;;;;;-143.72;100.00;60182.97;5051722;28;45574;-78
2022/01/22 09:51:06;;;;;;;;;48.25;38.50;;;;;-143.72;100.00;60182.97;5055955;28;46097;-78
2022/01/22 09:53:31;;;;;;;;;53.25;38.50;;;;;-143.72;100.00;60182.97;5055978;28;45526;-78
2022/01/22 09:55:57;;;;;;;;;54.00;40.75;;;;;-143.72;100.00;60182.97;5040686;28;45460;-78
2022/01/22 09:58:23;;;;;;;;;50.75;39.75;;;;;-143.72;100.00;60182.97;5056110;28;45874;-78
2022/01/22 10:00:49;;;;;;;;;55.50;41.25;;;;;-143.72;100.00;60182.97;5057199;28;45601;-77
2022/01/22 10:03:17;;;;;;;;;54.75;42.00;;;;;-143.72;100.00;60182.97;5055004;28;45269;-77
2022/01/22 10:05:43;;;;;;;;;50.75;38.00;;;;;-143.72;100.00;60182.97;5055474;28;45513;-78
2022/01/22 10:08:20;;;;;;;;;57.25;41.50;;;;;-143.72;100.00;60182.97;5041503;28;45427;-77
2022/01/22 10:10:47;;;;;;;;;57.25;41.75;;;;;-143.72;100.00;60182.97;5054243;28;45515;-77
2022/01/22 10:13:14;;;;;;;;;59.50;42.00;;;;;-143.72;100.00;60182.97;5054118;28;45595;-77
2022/01/22 10:15:40;;;;;;;;;54.25;41.25;;;;;-143.72;100.00;60182.97;5052539;28;45384;-77
2022/01/22 10:18:07;;;;;;;;;57.75;44.00;;;;;-143.72;100.00;60182.97;5055145;28;45451;-77
2022/01/22 10:20:36;;;;;;;;;60.50;44.50;;;;;-143.72;100.00;60182.97;5048243;28;46425;-77
2022/01/22 10:23:22;;;;;;;;;58.50;40.00;;;;;-143.72;100.00;60182.97;5047414;28;46432;-77
2022/01/22 10:25:56;;;;;;;;;56.75;43.75;;;;;-143.72;100.00;60182.97;5050314;28;45793;-77
2022/01/22 10:28:25;;;;;;;;;59.75;44.00;;;;;-143.72;100.00;60182.97;5051560;28;45226;-77
2022/01/22 10:31:03;;;;;;;;;60.00;43.50;;;;;-143.72;100.00;60182.97;5050730;28;45420;-77
2022/01/22 10:33:36;;;;;;;;;63.25;45.75;;;;;-143.72;100.00;60182.97;5043075;28;45501;-77
2022/01/22 10:36:17;;;;;;;;;59.25;47.00;;;;;-143.72;100.00;60182.97;5040144;28;45505;-77
2022/01/22 10:38:46;;;;;;;;;58.50;42.75;;;;;-143.72;100.00;60182.97;5038657;28;45938;-77
2022/01/22 10:41:14;;;;;;;;;53.50;39.00;;;;;-143.72;100.00;60182.97;5043654;28;47043;-77
2022/01/22 10:43:48;;;;;;;;;63.75;42.50;;;;;-143.72;100.00;60182.97;5053020;28;45449;-77
2022/01/22 10:46:31;;;;;;;;;65.25;47.50;;;;;-143.72;100.00;60182.97;5047678;28;45522;-77
2022/01/22 10:48:59;;;;;;;;;55.75;40.50;;;;;-143.72;100.00;60182.97;5043801;28;45412;-77
2022/01/22 10:51:30;;;;;;;;;59.50;44.75;;;;;-143.72;100.00;60182.97;5054337;28;46246;-77
2022/01/22 10:53:58;;;;;;;;;59.25;41.25;;;;;-143.72;100.00;60182.97;5054343;28;45431;-76
2022/01/22 10:56:25;;;;;;;;;48.00;39.50;;;;;-143.72;100.00;60182.97;5048838;28;45511;-77
2022/01/22 10:59:05;;;;;;;;;56.50;43.00;;;;;-143.72;100.00;60182.97;5053901;28;45376;-77
2022/01/22 11:01:54;;;;;;;;;52.75;42.00;;;;;-143.72;100.00;60182.97;5048440;28;46235;-77
2022/01/22 11:04:34;;;;;;;;;49.00;37.00;;;;;-143.72;100.00;60182.97;5050713;28;47030;-77
2022/01/22 11:07:03;;;;;;;;;51.25;37.25;;;;;-143.72;100.00;60182.97;5032412;28;45456;-77
2022/01/22 11:09:30;;;;;;;;;44.50;38.00;;;;;-143.72;100.00;60182.97;5046578;28;45370;-77
2022/01/22 11:12:00;;;;;;;;;48.75;34.50;;;;;-143.72;100.00;60182.97;5039180;28;45529;-77
2022/01/22 11:14:27;;;;;;;;;49.50;37.25;;;;;-143.72;100.00;60182.97;5055029;28;45777;-77
2022/01/22 11:16:53;;;;;;;;;49.25;40.25;;;;;-143.72;100.00;60182.97;5055588;28;45484;-77
2022/01/22 11:19:30;;;;;;;;;47.25;37.75;;;;;-143.72;100.00;60182.97;5050545;28;45525;-78
2022/01/22 11:21:56;;;;;;;;;52.75;37.75;;;;;-143.72;100.00;60182.97;5047372;28;46186;-78
2022/01/22 11:24:24;;;;;;;;;43.50;33.75;;;;;-143.72;100.00;60182.97;5053962;28;45480;-78
2022/01/22 11:26:53;;;;;;;;;56.00;42.00;;;;;-143.72;100.00;60182.97;5040807;28;45459;-78
2022/01/22 11:29:23;;;;;;;;;49.75;36.50;;;;;-143.72;100.00;60182.97;5037164;28;45690;-78
2022/01/22 11:31:50;;;;;;;;;54.00;41.50;;;;;-143.72;100.00;60182.97;5060052;28;45466;-78
2022/01/22 11:34:19;;;;;;;;;53.50;41.75;;;;;-143.72;100.00;60182.97;5054152;28;45480;-78
2022/01/22 11:36:57;;;;;;;;;50.75;35.75;;;;;-143.72;100.00;60182.97;5064474;28;45548;-78
2022/01/22 11:39:25;;;;;;;;;50.00;38.50;;;;;-143.72;100.00;60182.97;5055055;28;45906;-78
2022/01/22 11:41:53;;;;;;;;;55.75;40.50;;;;;-143.72;100.00;60182.97;5036968;28;48158;-78
2022/01/22 11:44:26;;;;;;;;;54.75;38.75;;;;;-143.72;100.00;60182.97;5031678;28;45521;-78
2022/01/22 11:47:07;;;;;;;;;52.75;41.00;;;;;-143.72;100.00;60182.97;5033908;28;45439;-78
2022/01/22 11:49:36;;;;;;;;;52.00;40.75;;;;;-143.72;100.00;60182.97;5034175;28;45393;-78
2022/01/22 11:52:08;;;;;;;;;48.00;37.25;;;;;-143.72;100.00;60182.97;5033885;28;45523;-78
2022/01/22 11:54:53;;;;;;;;;54.50;41.75;;;;;-143.72;100.00;60182.97;5033931;28;45339;-79
2022/01/22 11:57:19;;;;;;;;;52.50;40.25;;;;;-143.72;100.00;60182.97;5037104;28;45619;-77
2022/01/22 11:59:46;;;;;;;;;53.75;36.25;;;;;-143.72;100.00;60182.97;5038759;28;45364;-78
2022/01/22 12:02:14;;;;;;;;;61.25;44.25;;;;;-143.72;100.00;60182.97;5032304;28;45423;-78
2022/01/22 12:04:39;;;;;;;;;54.00;38.75;;;;;-143.72;100.00;60182.97;5037852;28;45484;-78
2022/01/22 12:07:04;;;;;;;;;52.25;38.00;;;;;-143.72;100.00;60182.97;5033357;28;45538;-80
2022/01/22 12:15:15;;;;;;;;;55.75;42.25;;;;;-143.72;100.00;60182.97;5031577;28;45665;-81
2022/01/22 12:17:49;;;;;;;;;43.00;34.50;;;;;-143.72;100.00;60182.97;5047114;28;45726;-81
2022/01/22 12:20:41;;;;;;;;;42.25;35.75;;;;;-143.72;100.00;60182.97;5029975;28;45296;-78